createdAt,value
2019-02-17T00:02:24.569Z,19.37
2019-02-17T00:04:53.552Z,19.30
2019-02-17T00:07:22.502Z,18.82
2019-02-17T00:09:51.401Z,18.23
2019-02-17T00:12:20.270Z,20.02
2019-02-17T00:14:49.080Z,19.00
2019-02-17T00:17:17.984Z,19.60
2019-02-17T00:19:46.877Z,20.48
2019-02-17T00:22:15.920Z,20.72
2019-02-17T00:24:44.756Z,20.02
2019-02-17T00:27:13.664Z,24.05
2019-02-17T00:29:42.585Z,22.05
2019-02-17T00:32:11.468Z,22.20
2019-02-17T00:34:40.408Z,21.82
2019-02-17T00:37:09.236Z,23.42
2019-02-17T00:39:38.181Z,22.98
2019-02-17T00:42:07.000Z,21.50
2019-02-17T00:44:35.972Z,19.02
2019-02-17T00:47:04.888Z,23.10
2019-02-17T00:49:33.676Z,22.42
2019-02-17T00:52:02.618Z,21.50
2019-02-17T00:54:31.444Z,20.88
2019-02-17T00:57:00.487Z,22.27
2019-02-17T00:59:29.363Z,19.75
2019-02-17T01:01:58.376Z,21.93
2019-02-17T01:04:27.188Z,21.60
2019-02-17T01:06:56.174Z,20.77
2019-02-17T01:09:25.532Z,21.15
2019-02-17T01:11:54.575Z,21.52
2019-02-17T01:14:23.376Z,20.02
2019-02-17T01:16:52.188Z,20.62
2019-02-17T01:19:21.006Z,23.07
2019-02-17T01:21:49.908Z,21.80
2019-02-17T01:24:18.830Z,20.92
2019-02-17T01:26:47.820Z,21.50
2019-02-17T01:29:20.325Z,21.10
2019-02-17T01:31:47.781Z,22.42
2019-02-17T01:34:16.728Z,20.77
2019-02-17T01:36:45.637Z,20.95
2019-02-17T01:39:14.646Z,22.55
2019-02-17T01:41:43.500Z,22.62
2019-02-17T01:44:12.340Z,22.80
2019-02-17T01:46:41.141Z,21.12
2019-02-17T01:49:09.923Z,23.32
2019-02-17T01:51:38.734Z,22.02
2019-02-17T01:54:08.036Z,24.30
2019-02-17T01:56:36.818Z,22.17
2019-02-17T01:59:05.704Z,22.55
2019-02-17T02:01:34.520Z,22.87
2019-02-17T02:04:03.828Z,23.32
2019-02-17T02:06:32.717Z,22.70
2019-02-17T02:09:01.548Z,22.52
2019-02-17T02:11:30.425Z,22.62
2019-02-17T02:13:59.340Z,20.43
2019-02-17T02:16:28.342Z,20.92
2019-02-17T02:18:57.128Z,22.50
2019-02-17T02:21:26.155Z,21.30
2019-02-17T02:23:55.464Z,20.08
2019-02-17T02:26:24.368Z,21.23
2019-02-17T02:28:53.256Z,21.20
2019-02-17T02:31:22.229Z,21.42
2019-02-17T02:33:51.100Z,22.30
2019-02-17T02:36:20.308Z,20.27
2019-02-17T02:38:49.264Z,20.77
2019-02-17T02:41:18.164Z,19.92
2019-02-17T02:43:47.052Z,19.75
2019-02-17T02:46:15.920Z,23.00
2019-02-17T02:48:44.778Z,21.35
2019-02-17T02:51:13.580Z,19.73
2019-02-17T02:53:42.533Z,18.80
2019-02-17T02:56:11.497Z,20.80
2019-02-17T02:58:40.409Z,22.17
2019-02-17T03:01:10.352Z,21.73
2019-02-17T03:03:39.184Z,19.80
2019-02-17T03:06:18.465Z,20.12
2019-02-17T03:08:47.376Z,20.43
2019-02-17T03:11:16.233Z,19.82
2019-02-17T03:13:45.120Z,20.62
2019-02-17T03:16:13.900Z,19.80
2019-02-17T03:18:42.713Z,20.70
2019-02-17T03:21:11.620Z,19.90
2019-02-17T03:23:40.435Z,19.85
2019-02-17T03:26:09.321Z,20.70
2019-02-17T03:28:38.308Z,21.60
2019-02-17T03:31:07.451Z,19.85
2019-02-17T03:33:36.338Z,19.27
2019-02-17T03:36:05.197Z,19.15
2019-02-17T03:38:34.034Z,20.92
2019-02-17T03:41:02.823Z,19.50
2019-02-17T03:43:31.696Z,20.10
2019-02-17T03:46:00.504Z,21.93
2019-02-17T03:48:29.425Z,19.77
2019-02-17T03:50:58.403Z,21.40
2019-02-17T03:53:27.280Z,18.87
2019-02-17T03:55:56.165Z,19.62
2019-02-17T03:58:25.150Z,20.12
2019-02-17T04:00:54.068Z,19.37
2019-02-17T04:03:22.968Z,19.67
2019-02-17T04:05:51.880Z,19.57
2019-02-17T04:08:20.854Z,19.23
2019-02-17T04:10:49.776Z,19.35
2019-02-17T04:13:18.952Z,18.25
2019-02-17T04:15:47.825Z,19.80
2019-02-17T04:18:16.738Z,18.50
2019-02-17T04:20:45.636Z,20.27
2019-02-17T04:23:14.516Z,19.20
2019-02-17T04:25:43.348Z,18.10
2019-02-17T04:28:12.245Z,18.32
2019-02-17T04:30:41.129Z,17.85
2019-02-17T04:33:09.932Z,20.37
2019-02-17T04:35:38.724Z,18.00
2019-02-17T04:38:07.596Z,18.10
2019-02-17T04:40:36.390Z,16.80
2019-02-17T04:43:05.269Z,18.45
2019-02-17T04:45:34.154Z,17.50
2019-02-17T04:48:03.092Z,17.55
2019-02-17T04:50:31.975Z,17.15
2019-02-17T04:53:00.864Z,17.15
2019-02-17T04:55:29.748Z,16.90
2019-02-17T04:57:58.552Z,16.45
2019-02-17T05:00:27.464Z,16.95
2019-02-17T05:02:56.344Z,15.58
2019-02-17T05:05:25.272Z,15.65
2019-02-17T05:07:54.225Z,16.87
2019-02-17T05:10:23.149Z,16.30
2019-02-17T05:12:52.064Z,14.47
2019-02-17T05:15:20.931Z,15.03
2019-02-17T05:17:49.792Z,16.32
2019-02-17T05:20:19.093Z,16.00
2019-02-17T05:22:48.213Z,16.40
2019-02-17T05:25:17.160Z,16.17
2019-02-17T05:27:46.032Z,16.60
2019-02-17T05:30:15.028Z,16.45
2019-02-17T05:32:43.961Z,16.52
2019-02-17T05:35:12.909Z,16.07
2019-02-17T05:37:41.801Z,16.10
2019-02-17T05:40:10.901Z,17.15
2019-02-17T05:42:39.664Z,17.92
2019-02-17T05:45:08.594Z,17.87
2019-02-17T05:47:37.383Z,16.37
2019-02-17T05:50:06.384Z,17.62
2019-02-17T05:52:35.628Z,16.02
2019-02-17T05:55:05.422Z,17.30
2019-02-17T05:57:34.328Z,17.32
2019-02-17T06:00:03.212Z,17.67
2019-02-17T06:02:32.212Z,18.45
2019-02-17T06:05:01.084Z,18.85
2019-02-17T06:07:30.031Z,17.73
2019-02-17T06:09:58.974Z,16.95
2019-02-17T06:12:27.774Z,17.62
2019-02-17T06:14:56.684Z,16.70
2019-02-17T06:17:25.809Z,20.92
2019-02-17T06:19:54.612Z,18.85
2019-02-17T06:22:23.514Z,18.30
2019-02-17T06:24:52.420Z,18.00
2019-02-17T06:27:21.194Z,17.60
2019-02-17T06:29:50.101Z,18.40
2019-02-17T06:32:18.908Z,15.93
2019-02-17T06:34:47.834Z,15.65
2019-02-17T06:37:16.760Z,17.52
2019-02-17T06:39:45.736Z,18.77
2019-02-17T06:42:14.654Z,16.07
2019-02-17T06:44:43.542Z,17.35
2019-02-17T06:47:17.892Z,17.57
2019-02-17T06:49:46.760Z,17.20
2019-02-17T06:52:15.949Z,16.85
2019-02-17T06:54:47.404Z,17.07
2019-02-17T06:57:23.120Z,15.80
2019-02-17T07:00:07.976Z,16.77
2019-02-17T07:02:36.901Z,16.60
2019-02-17T07:05:16.159Z,16.42
2019-02-17T07:07:44.991Z,17.17
2019-02-17T07:10:13.875Z,17.17
2019-02-17T07:12:42.798Z,17.05
2019-02-17T07:15:11.777Z,16.67
2019-02-17T07:17:40.564Z,16.85
2019-02-17T07:20:09.917Z,17.55
2019-02-17T07:22:38.873Z,17.50
2019-02-17T07:25:07.733Z,15.60
2019-02-17T07:27:36.628Z,16.70
2019-02-17T07:30:06.042Z,16.25
2019-02-17T07:32:35.020Z,17.48
2019-02-17T07:35:04.446Z,15.88
2019-02-17T07:37:34.040Z,16.35
2019-02-17T07:40:03.557Z,16.20
2019-02-17T07:42:32.388Z,16.90
2019-02-17T07:45:01.207Z,17.27
2019-02-17T07:47:30.161Z,17.37
2019-02-17T07:49:59.012Z,16.70
2019-02-17T07:52:27.836Z,16.50
2019-02-17T07:54:56.716Z,16.40
2019-02-17T07:57:25.524Z,16.27
2019-02-17T07:59:54.577Z,18.00
2019-02-17T08:02:23.604Z,17.12
2019-02-17T08:04:52.389Z,17.67
2019-02-17T08:07:21.341Z,17.40
2019-02-17T08:09:50.252Z,19.52
2019-02-17T08:12:19.123Z,20.52
2019-02-17T08:14:48.102Z,19.92
2019-02-17T08:17:16.899Z,21.05
2019-02-17T08:19:45.912Z,22.37
2019-02-17T08:22:14.820Z,21.77
2019-02-17T08:24:43.821Z,22.00
2019-02-17T08:27:12.900Z,23.10
2019-02-17T08:29:41.760Z,22.10
2019-02-17T08:32:10.696Z,22.85
2019-02-17T08:34:39.524Z,23.40
2019-02-17T08:37:08.464Z,22.48
2019-02-17T08:39:37.865Z,21.75
2019-02-17T08:42:06.837Z,20.68
2019-02-17T08:44:35.714Z,21.97
2019-02-17T08:47:04.619Z,23.10
2019-02-17T08:49:33.931Z,22.77
2019-02-17T08:52:03.248Z,24.25
2019-02-17T08:54:32.272Z,21.12
2019-02-17T08:57:01.384Z,22.40
2019-02-17T08:59:30.445Z,23.90
2019-02-17T09:02:06.013Z,24.05
2019-02-17T09:04:30.081Z,23.25
2019-02-17T09:06:58.922Z,23.22
2019-02-17T09:09:27.892Z,23.02
2019-02-17T09:11:56.721Z,21.93
2019-02-17T09:14:25.617Z,23.02
2019-02-17T09:16:54.432Z,23.30
2019-02-17T09:19:23.440Z,22.85
2019-02-17T09:21:52.624Z,24.82
2019-02-17T09:24:21.616Z,22.90
2019-02-17T09:26:50.446Z,23.12
2019-02-17T09:29:19.512Z,23.07
2019-02-17T09:31:48.349Z,22.82
2019-02-17T09:34:17.193Z,23.70
2019-02-17T09:36:45.994Z,23.57
2019-02-17T09:39:14.811Z,22.67
2019-02-17T09:41:43.599Z,24.17
2019-02-17T09:44:12.426Z,24.77
2019-02-17T09:46:41.434Z,23.17
2019-02-17T09:49:10.236Z,23.20
2019-02-17T09:51:39.124Z,25.10
2019-02-17T09:54:08.224Z,22.57
2019-02-17T09:56:37.012Z,22.53
2019-02-17T09:59:05.925Z,22.60
2019-02-17T10:01:34.836Z,22.70
2019-02-17T10:04:04.072Z,22.25
2019-02-17T10:06:33.028Z,22.83
2019-02-17T10:09:01.866Z,23.40
2019-02-17T10:11:30.771Z,21.80
2019-02-17T10:13:59.581Z,22.70
2019-02-17T10:16:28.492Z,21.60
2019-02-17T10:18:57.475Z,22.77
2019-02-17T10:21:26.368Z,21.60
2019-02-17T10:23:55.292Z,21.50
2019-02-17T10:26:24.200Z,22.70
2019-02-17T10:28:52.977Z,21.20
2019-02-17T10:31:21.984Z,21.37
2019-02-17T10:33:50.943Z,21.17
2019-02-17T10:36:19.845Z,21.27
2019-02-17T10:38:48.756Z,21.27
2019-02-17T10:41:17.667Z,22.33
2019-02-17T10:43:47.035Z,22.37
2019-02-17T10:46:15.954Z,21.93
2019-02-17T10:48:44.859Z,21.87
2019-02-17T10:51:14.124Z,21.97
2019-02-17T10:53:43.088Z,21.17
2019-02-17T10:56:12.177Z,22.50
2019-02-17T10:58:41.156Z,22.47
2019-02-17T11:01:10.072Z,21.87
2019-02-17T11:03:38.952Z,21.37
2019-02-17T11:06:07.873Z,21.30
2019-02-17T11:08:37.981Z,23.30
2019-02-17T11:11:06.988Z,21.00
2019-02-17T11:13:35.808Z,19.73
2019-02-17T11:16:04.660Z,19.93
2019-02-17T11:18:33.722Z,18.80
2019-02-17T11:21:02.619Z,19.20
2019-02-17T11:23:31.536Z,20.00
2019-02-17T11:26:00.524Z,19.17
2019-02-17T11:28:29.313Z,19.93
2019-02-17T11:30:58.206Z,19.20
2019-02-17T11:33:27.088Z,19.90
2019-02-17T11:35:56.088Z,17.70
2019-02-17T11:38:25.009Z,14.83
2019-02-17T11:40:53.972Z,15.40
2019-02-17T11:43:22.876Z,16.23
2019-02-17T11:45:51.829Z,16.77
2019-02-17T11:48:21.004Z,17.53
2019-02-17T11:50:49.984Z,15.97
2019-02-17T11:53:18.900Z,14.87
2019-02-17T11:55:47.780Z,16.90
2019-02-17T11:58:16.708Z,16.07
2019-02-17T12:00:45.688Z,17.23
2019-02-17T12:03:14.524Z,15.40
2019-02-17T12:05:43.432Z,15.30
2019-02-17T12:08:12.408Z,15.17
2019-02-17T12:10:41.324Z,15.63
2019-02-17T12:13:10.204Z,16.30
2019-02-17T12:15:39.072Z,16.73
2019-02-17T12:18:07.993Z,16.63
2019-02-17T12:21:01.754Z,16.20
2019-02-17T12:23:35.112Z,15.90
2019-02-17T12:26:07.744Z,16.30
2019-02-17T12:28:43.680Z,16.00
2019-02-17T12:31:17.336Z,15.03
2019-02-17T12:33:46.228Z,16.13
2019-02-17T12:36:15.465Z,16.17
2019-02-17T12:38:44.368Z,16.87
2019-02-17T12:41:13.167Z,17.40
2019-02-17T12:43:42.060Z,15.43
2019-02-17T12:46:10.976Z,15.40
2019-02-17T12:48:39.919Z,14.97
2019-02-17T12:51:08.697Z,14.57
2019-02-17T12:53:37.506Z,14.07
2019-02-17T12:56:06.400Z,15.70
2019-02-17T12:58:35.417Z,14.53
2019-02-17T13:01:04.552Z,14.17
2019-02-17T13:03:33.357Z,16.00
2019-02-17T13:06:02.160Z,13.17
2019-02-17T13:08:31.044Z,14.33
2019-02-17T13:11:00.045Z,14.77
2019-02-17T13:13:28.908Z,14.23
2019-02-17T13:15:57.772Z,14.87
2019-02-17T13:18:26.560Z,14.50
2019-02-17T13:20:55.560Z,16.70
2019-02-17T13:23:24.353Z,14.73
2019-02-17T13:25:53.168Z,13.07
2019-02-17T13:28:22.040Z,13.20
2019-02-17T13:30:50.920Z,13.13
2019-02-17T13:33:19.905Z,12.43
2019-02-17T13:35:49.100Z,13.57
2019-02-17T13:38:18.295Z,12.17
2019-02-17T13:40:47.204Z,12.50
2019-02-17T13:43:16.169Z,12.97
2019-02-17T13:45:45.053Z,13.10
2019-02-17T13:48:13.960Z,13.20
2019-02-17T13:50:42.865Z,13.63
2019-02-17T13:53:12.252Z,13.27
2019-02-17T13:55:41.433Z,11.83
2019-02-17T13:58:10.314Z,12.00
2019-02-17T14:00:39.200Z,12.80
2019-02-17T14:03:08.220Z,12.37
2019-02-17T14:05:37.180Z,11.60
2019-02-17T14:08:06.120Z,11.97
2019-02-17T14:10:34.947Z,12.20
2019-02-17T14:13:03.948Z,12.47
2019-02-17T14:15:33.316Z,13.37
2019-02-17T14:18:02.196Z,12.67
2019-02-17T14:20:31.132Z,12.10
2019-02-17T14:22:59.961Z,11.60
2019-02-17T14:25:28.800Z,12.10
2019-02-17T14:27:57.908Z,11.70
2019-02-17T14:30:26.704Z,12.27
2019-02-17T14:32:55.606Z,12.97
2019-02-17T14:35:24.614Z,12.37
2019-02-17T14:37:53.500Z,12.33
2019-02-17T14:40:22.527Z,11.87
2019-02-17T14:42:51.329Z,12.07
2019-02-17T14:45:20.250Z,10.80
2019-02-17T14:47:49.194Z,11.93
2019-02-17T14:50:17.992Z,10.80
2019-02-17T14:52:46.904Z,10.73
2019-02-17T14:55:15.816Z,11.20
2019-02-17T14:57:44.796Z,9.43
2019-02-17T15:00:13.817Z,9.90
2019-02-17T15:05:23.128Z,9.07
2019-02-17T15:07:52.062Z,9.33
2019-02-17T15:10:20.986Z,9.20
2019-02-17T15:12:49.884Z,10.10
2019-02-17T15:15:19.016Z,9.07
2019-02-17T15:17:48.023Z,9.97
2019-02-17T15:20:17.104Z,9.60
2019-02-17T15:22:45.906Z,9.10
2019-02-17T15:25:14.868Z,8.43
2019-02-17T15:27:43.788Z,8.67
2019-02-17T15:30:13.853Z,8.57
2019-02-17T15:32:42.792Z,8.80
2019-02-17T15:35:11.878Z,8.50
2019-02-17T15:37:40.840Z,8.27
2019-02-17T15:40:10.527Z,8.30
2019-02-17T15:42:39.476Z,7.87
2019-02-17T15:45:10.531Z,8.00
2019-02-17T15:47:39.528Z,8.10
2019-02-17T15:50:09.243Z,7.53
2019-02-17T15:52:38.135Z,7.77
2019-02-17T15:55:08.146Z,8.07
2019-02-17T15:57:37.104Z,8.03
2019-02-17T16:00:08.080Z,8.10
2019-02-17T16:02:36.969Z,7.40
2019-02-17T16:05:06.317Z,7.40
2019-02-17T16:07:35.241Z,7.90
2019-02-17T16:10:04.791Z,8.13
2019-02-17T16:12:33.672Z,7.60
2019-02-17T16:15:02.760Z,7.00
2019-02-17T16:17:32.197Z,6.60
2019-02-17T16:20:01.177Z,7.40
2019-02-17T16:22:30.080Z,6.50
2019-02-17T16:24:58.963Z,6.63
2019-02-17T16:27:28.205Z,6.70
2019-02-17T16:29:57.292Z,7.60
2019-02-17T16:32:26.131Z,8.30
2019-02-17T16:34:54.937Z,6.90
2019-02-17T16:37:24.707Z,9.03
2019-02-17T16:39:53.780Z,13.27
2019-02-17T16:42:22.843Z,14.07
2019-02-17T16:44:51.619Z,9.90
2019-02-17T16:47:20.488Z,8.50
2019-02-17T16:49:49.511Z,8.27
2019-02-17T16:52:18.500Z,8.97
2019-02-17T16:54:47.452Z,7.53
2019-02-17T16:57:16.396Z,7.50
2019-02-17T16:59:45.385Z,7.40
2019-02-17T17:02:14.469Z,8.63
2019-02-17T17:04:48.421Z,7.93
2019-02-17T17:07:14.338Z,9.20
2019-02-17T17:09:43.288Z,9.63
2019-02-17T17:12:12.357Z,8.17
2019-02-17T17:14:41.596Z,8.70
2019-02-17T17:17:10.900Z,8.70
2019-02-17T17:19:39.671Z,8.93
2019-02-17T17:22:08.580Z,8.60
2019-02-17T17:24:37.544Z,9.23
2019-02-17T17:27:06.448Z,8.80
2019-02-17T17:29:35.275Z,8.83
2019-02-17T17:32:04.512Z,9.20
2019-02-17T17:34:34.281Z,11.97
2019-02-17T17:37:03.436Z,14.60
2019-02-17T17:39:32.348Z,11.80
2019-02-17T17:42:01.353Z,10.53
2019-02-17T17:44:31.146Z,11.60
2019-02-17T17:47:00.000Z,10.23
2019-02-17T17:49:29.148Z,12.50
2019-02-17T17:51:58.151Z,11.30
2019-02-17T17:54:27.053Z,11.97
2019-02-17T17:56:55.912Z,14.80
2019-02-17T17:59:25.099Z,19.80
2019-02-17T18:01:53.884Z,23.83
2019-02-17T18:04:22.725Z,26.47
2019-02-17T18:06:51.696Z,30.57
2019-02-17T18:09:20.593Z,29.13
2019-02-17T18:11:49.520Z,25.83
2019-02-17T18:14:18.428Z,12.40
2019-02-17T18:16:47.564Z,11.60
2019-02-17T18:19:16.610Z,10.20
2019-02-17T18:21:45.436Z,11.80
2019-02-17T18:24:14.502Z,11.60
2019-02-17T18:26:43.559Z,11.30
2019-02-17T18:29:12.567Z,10.97
2019-02-17T18:31:41.492Z,10.03
2019-02-17T18:34:10.488Z,11.73
2019-02-17T18:36:39.362Z,10.43
2019-02-17T18:39:09.480Z,13.40
2019-02-17T18:41:38.460Z,11.93
2019-02-17T18:44:07.483Z,11.73
2019-02-17T18:46:36.377Z,13.17
2019-02-17T18:49:24.301Z,12.70
2019-02-17T18:51:53.205Z,14.17
2019-02-17T18:54:22.039Z,12.33
2019-02-17T18:56:50.836Z,27.30
2019-02-17T18:59:19.741Z,25.20
2019-02-17T19:01:48.644Z,22.63
2019-02-17T19:04:17.560Z,20.87
2019-02-17T19:06:46.376Z,24.40
2019-02-17T19:09:15.201Z,25.27
2019-02-17T19:11:44.098Z,18.60
2019-02-17T19:14:13.100Z,36.57
2019-02-17T19:16:42.021Z,51.00
2019-02-17T19:19:10.925Z,25.10
2019-02-17T19:21:39.747Z,21.80
2019-02-17T19:24:08.556Z,24.33
2019-02-17T19:26:37.328Z,24.87
2019-02-17T19:29:06.220Z,24.03
2019-02-17T19:31:35.122Z,19.97
2019-02-17T19:34:04.162Z,18.93
2019-02-17T19:36:32.992Z,21.33
2019-02-17T19:39:01.948Z,13.17
2019-02-17T19:41:30.949Z,14.83
2019-02-17T19:43:59.820Z,14.33
2019-02-17T19:46:28.685Z,17.70
2019-02-17T19:48:57.536Z,17.13
2019-02-17T19:51:26.472Z,14.17
2019-02-17T19:53:55.516Z,12.53
2019-02-17T19:56:24.349Z,13.93
2019-02-17T19:58:53.232Z,13.73
2019-02-17T20:01:22.240Z,15.30
2019-02-17T20:03:59.489Z,14.37
2019-02-17T20:06:28.424Z,15.37
2019-02-17T20:08:57.271Z,16.07
2019-02-17T20:11:26.192Z,14.77
2019-02-17T20:13:55.012Z,14.13
2019-02-17T20:16:23.974Z,14.37
2019-02-17T20:18:52.790Z,16.37
2019-02-17T20:21:21.568Z,17.70
2019-02-17T20:23:50.605Z,18.50
2019-02-17T20:26:19.484Z,20.10
2019-02-17T20:28:48.708Z,27.33
2019-02-17T20:31:17.789Z,21.80
2019-02-17T20:33:46.601Z,17.33
2019-02-17T20:36:15.600Z,13.20
2019-02-17T20:38:44.412Z,13.10
2019-02-17T20:41:13.656Z,16.60
2019-02-17T20:43:42.548Z,14.00
2019-02-17T20:46:11.324Z,13.10
2019-02-17T20:48:40.117Z,12.03
2019-02-17T20:51:08.900Z,13.40
2019-02-17T20:53:38.078Z,13.93
2019-02-17T20:56:06.961Z,13.30
2019-02-17T20:58:35.976Z,15.50
2019-02-17T21:01:04.904Z,15.57
2019-02-17T21:03:33.704Z,17.07
2019-02-17T21:06:12.189Z,17.53
2019-02-17T21:08:33.285Z,15.43
2019-02-17T21:11:02.184Z,15.97
2019-02-17T21:13:31.069Z,15.10
2019-02-17T21:16:00.311Z,15.10
2019-02-17T21:18:29.320Z,14.10
2019-02-17T21:20:58.127Z,15.40
2019-02-17T21:23:27.230Z,14.73
2019-02-17T21:25:56.352Z,14.40
2019-02-17T21:28:25.521Z,15.23
2019-02-17T21:30:54.386Z,14.13
2019-02-17T21:33:23.300Z,13.77
2019-02-17T21:35:52.502Z,14.07
2019-02-17T21:38:21.500Z,14.53
2019-02-17T21:40:50.332Z,14.50
2019-02-17T21:43:19.129Z,14.93
2019-02-17T21:45:47.947Z,13.67
2019-02-17T21:48:16.764Z,15.10
2019-02-17T21:50:45.601Z,16.10
2019-02-17T21:53:20.217Z,16.80
2019-02-17T21:55:45.605Z,30.10
2019-02-17T21:58:14.416Z,27.60
2019-02-17T22:00:43.285Z,27.40
2019-02-17T22:03:12.053Z,27.57
2019-02-17T22:05:40.956Z,26.60
2019-02-17T22:08:09.841Z,25.90
2019-02-17T22:10:38.820Z,25.60
2019-02-17T22:13:07.769Z,25.10
2019-02-17T22:15:36.593Z,23.43
2019-02-17T22:18:05.452Z,21.63
2019-02-17T22:20:34.355Z,20.30
2019-02-17T22:23:03.195Z,20.00
2019-02-17T22:25:32.102Z,18.98
2019-02-17T22:28:01.105Z,18.30
2019-02-17T22:30:30.087Z,19.35
2019-02-17T22:32:58.980Z,21.48
2019-02-17T22:35:28.508Z,17.90
2019-02-17T22:37:57.808Z,19.87
2019-02-17T22:40:26.900Z,20.20
2019-02-17T22:42:55.792Z,18.95
2019-02-17T22:45:24.691Z,20.48
2019-02-17T22:47:53.775Z,20.75
2019-02-17T22:50:22.769Z,18.57
2019-02-17T22:52:51.859Z,19.35
2019-02-17T22:55:20.844Z,18.02
2019-02-17T22:57:49.755Z,17.98
2019-02-17T23:00:29.693Z,19.90
2019-02-17T23:02:58.663Z,20.40
2019-02-17T23:05:27.673Z,21.53
2019-02-17T23:07:56.584Z,20.30
2019-02-17T23:10:25.476Z,17.90
2019-02-17T23:12:54.356Z,19.25
2019-02-17T23:15:23.263Z,19.40
2019-02-17T23:17:52.040Z,18.52
2019-02-17T23:20:21.016Z,17.62
2019-02-17T23:22:50.200Z,18.65
2019-02-17T23:25:19.356Z,18.30
2019-02-17T23:27:48.266Z,19.40
2019-02-17T23:30:17.158Z,18.12
2019-02-17T23:32:46.075Z,18.57
2019-02-17T23:35:14.949Z,18.57
2019-02-17T23:37:43.848Z,17.10
2019-02-17T23:40:12.812Z,16.25
2019-02-17T23:42:41.691Z,18.10
2019-02-17T23:45:10.972Z,18.07
2019-02-17T23:47:39.957Z,18.27
2019-02-17T23:50:09.266Z,17.35
2019-02-17T23:52:38.064Z,16.90
2019-02-17T23:55:07.053Z,16.60
2019-02-17T23:57:36.060Z,17.87
